sensor_id;sensor_type;location;lat;lon;timestamp;P1;durP1;ratioP1;P2;durP2;ratioP2
11735;SDS011;5924;51.398;7.088;2023-04-10T00:00:08;21.07;;;13.07;;
11735;SDS011;5924;51.398;7.088;2023-04-10T00:02:34;19.30;;;12.40;;
11735;SDS011;5924;51.398;7.088;2023-04-10T00:05:01;16.57;;;11.50;;
11735;SDS011;5924;51.398;7.088;2023-04-10T00:07:27;18.20;;;11.97;;
11735;SDS011;5924;51.398;7.088;2023-04-10T00:09:53;17.20;;;10.80;;
11735;SDS011;5924;51.398;7.088;2023-04-10T00:12:19;14.33;;;11.50;;
11735;SDS011;5924;51.398;7.088;2023-04-10T00:14:45;13.50;;;10.90;;
11735;SDS011;5924;51.398;7.088;2023-04-10T00:17:10;17.10;;;11.40;;
11735;SDS011;5924;51.398;7.088;2023-04-10T00:19:36;15.30;;;11.60;;
11735;SDS011;5924;51.398;7.088;2023-04-10T00:22:02;14.67;;;11.17;;
11735;SDS011;5924;51.398;7.088;2023-04-10T00:24:28;17.50;;;12.27;;
11735;SDS011;5924;51.398;7.088;2023-04-10T00:26:54;22.10;;;12.97;;
11735;SDS011;5924;51.398;7.088;2023-04-10T00:29:21;15.87;;;11.20;;
11735;SDS011;5924;51.398;7.088;2023-04-10T00:31:47;18.90;;;12.07;;
11735;SDS011;5924;51.398;7.088;2023-04-10T00:34:13;17.80;;;12.90;;
11735;SDS011;5924;51.398;7.088;2023-04-10T00:36:39;26.57;;;13.33;;
11735;SDS011;5924;51.398;7.088;2023-04-10T00:39:05;15.93;;;11.70;;
11735;SDS011;5924;51.398;7.088;2023-04-10T00:41:31;17.97;;;12.07;;
11735;SDS011;5924;51.398;7.088;2023-04-10T00:43:57;21.10;;;12.23;;
11735;SDS011;5924;51.398;7.088;2023-04-10T00:46:24;19.63;;;12.70;;
11735;SDS011;5924;51.398;7.088;2023-04-10T00:48:50;17.63;;;12.67;;
11735;SDS011;5924;51.398;7.088;2023-04-10T00:51:17;17.97;;;12.27;;
11735;SDS011;5924;51.398;7.088;2023-04-10T00:53:49;18.40;;;12.37;;
11735;SDS011;5924;51.398;7.088;2023-04-10T00:56:15;17.70;;;12.30;;
11735;SDS011;5924;51.398;7.088;2023-04-10T00:58:44;20.73;;;13.50;;
11735;SDS011;5924;51.398;7.088;2023-04-10T01:01:11;21.93;;;13.50;;
11735;SDS011;5924;51.398;7.088;2023-04-10T01:03:37;19.47;;;13.67;;
11735;SDS011;5924;51.398;7.088;2023-04-10T01:16:47;17.07;;;10.53;;
11735;SDS011;5924;51.398;7.088;2023-04-10T01:19:24;16.00;;;12.50;;
11735;SDS011;5924;51.398;7.088;2023-04-10T01:22:00;20.43;;;12.57;;
11735;SDS011;5924;51.398;7.088;2023-04-10T01:24:52;16.33;;;11.50;;
11735;SDS011;5924;51.398;7.088;2023-04-10T01:27:49;18.47;;;13.23;;
11735;SDS011;5924;51.398;7.088;2023-04-10T01:30:37;16.03;;;11.33;;
11735;SDS011;5924;51.398;7.088;2023-04-10T01:33:04;15.20;;;10.63;;
11735;SDS011;5924;51.398;7.088;2023-04-10T01:35:36;16.53;;;11.37;;
11735;SDS011;5924;51.398;7.088;2023-04-10T01:38:04;16.17;;;11.43;;
11735;SDS011;5924;51.398;7.088;2023-04-10T01:40:31;15.17;;;11.27;;
11735;SDS011;5924;51.398;7.088;2023-04-10T01:42:59;16.10;;;11.53;;
11735;SDS011;5924;51.398;7.088;2023-04-10T01:45:26;15.10;;;10.87;;
11735;SDS011;5924;51.398;7.088;2023-04-10T01:47:55;14.30;;;10.63;;
11735;SDS011;5924;51.398;7.088;2023-04-10T01:50:22;17.50;;;11.50;;
11735;SDS011;5924;51.398;7.088;2023-04-10T01:52:49;16.43;;;11.47;;
11735;SDS011;5924;51.398;7.088;2023-04-10T01:55:16;17.50;;;11.73;;
11735;SDS011;5924;51.398;7.088;2023-04-10T01:57:44;21.13;;;12.43;;
11735;SDS011;5924;51.398;7.088;2023-04-10T02:00:12;16.40;;;11.50;;
11735;SDS011;5924;51.398;7.088;2023-04-10T02:02:39;18.87;;;10.40;;
11735;SDS011;5924;51.398;7.088;2023-04-10T02:05:06;16.87;;;11.87;;
11735;SDS011;5924;51.398;7.088;2023-04-10T02:07:36;15.10;;;10.90;;
11735;SDS011;5924;51.398;7.088;2023-04-10T02:10:09;15.23;;;10.90;;
11735;SDS011;5924;51.398;7.088;2023-04-10T02:12:38;14.10;;;10.40;;
11735;SDS011;5924;51.398;7.088;2023-04-10T02:15:18;21.83;;;12.10;;
11735;SDS011;5924;51.398;7.088;2023-04-10T02:17:46;14.20;;;10.67;;
11735;SDS011;5924;51.398;7.088;2023-04-10T02:20:12;12.97;;;10.30;;
11735;SDS011;5924;51.398;7.088;2023-04-10T02:22:39;20.67;;;11.47;;
11735;SDS011;5924;51.398;7.088;2023-04-10T02:25:09;15.47;;;10.97;;
11735;SDS011;5924;51.398;7.088;2023-04-10T02:27:36;13.77;;;10.57;;
11735;SDS011;5924;51.398;7.088;2023-04-10T02:30:02;11.77;;;9.80;;
11735;SDS011;5924;51.398;7.088;2023-04-10T02:32:29;15.27;;;10.90;;
11735;SDS011;5924;51.398;7.088;2023-04-10T02:34:56;11.83;;;9.90;;
11735;SDS011;5924;51.398;7.088;2023-04-10T02:37:22;14.73;;;11.10;;
11735;SDS011;5924;51.398;7.088;2023-04-10T02:39:48;16.87;;;10.90;;
11735;SDS011;5924;51.398;7.088;2023-04-10T02:42:14;13.50;;;10.00;;
11735;SDS011;5924;51.398;7.088;2023-04-10T02:44:40;13.97;;;10.33;;
11735;SDS011;5924;51.398;7.088;2023-04-10T02:47:05;16.30;;;11.20;;
11735;SDS011;5924;51.398;7.088;2023-04-10T02:49:34;14.30;;;10.33;;
11735;SDS011;5924;51.398;7.088;2023-04-10T02:52:00;17.13;;;10.67;;
11735;SDS011;5924;51.398;7.088;2023-04-10T02:54:26;17.17;;;11.07;;
11735;SDS011;5924;51.398;7.088;2023-04-10T02:56:52;15.40;;;11.10;;
11735;SDS011;5924;51.398;7.088;2023-04-10T02:59:17;12.30;;;9.93;;
11735;SDS011;5924;51.398;7.088;2023-04-10T03:01:44;13.03;;;10.10;;
11735;SDS011;5924;51.398;7.088;2023-04-10T03:04:11;15.63;;;10.40;;
11735;SDS011;5924;51.398;7.088;2023-04-10T03:06:37;15.90;;;9.40;;
11735;SDS011;5924;51.398;7.088;2023-04-10T03:09:02;13.00;;;10.10;;
11735;SDS011;5924;51.398;7.088;2023-04-10T03:11:28;14.73;;;10.33;;
11735;SDS011;5924;51.398;7.088;2023-04-10T03:13:54;11.33;;;9.10;;
11735;SDS011;5924;51.398;7.088;2023-04-10T03:16:22;12.67;;;10.00;;
11735;SDS011;5924;51.398;7.088;2023-04-10T03:18:48;11.87;;;9.90;;
11735;SDS011;5924;51.398;7.088;2023-04-10T03:21:13;14.80;;;10.27;;
11735;SDS011;5924;51.398;7.088;2023-04-10T03:23:40;14.97;;;10.57;;
11735;SDS011;5924;51.398;7.088;2023-04-10T03:26:05;12.43;;;9.33;;
11735;SDS011;5924;51.398;7.088;2023-04-10T03:28:32;16.90;;;10.27;;
11735;SDS011;5924;51.398;7.088;2023-04-10T03:31:00;13.90;;;10.10;;
11735;SDS011;5924;51.398;7.088;2023-04-10T03:33:29;11.30;;;8.60;;
11735;SDS011;5924;51.398;7.088;2023-04-10T03:35:55;11.43;;;9.20;;
11735;SDS011;5924;51.398;7.088;2023-04-10T03:38:21;12.20;;;9.20;;
11735;SDS011;5924;51.398;7.088;2023-04-10T03:40:47;12.10;;;9.43;;
11735;SDS011;5924;51.398;7.088;2023-04-10T03:43:12;11.57;;;8.40;;
11735;SDS011;5924;51.398;7.088;2023-04-10T03:45:38;8.60;;;7.90;;
11735;SDS011;5924;51.398;7.088;2023-04-10T03:48:04;11.53;;;8.37;;
11735;SDS011;5924;51.398;7.088;2023-04-10T03:50:30;8.47;;;7.57;;
11735;SDS011;5924;51.398;7.088;2023-04-10T03:52:56;9.60;;;8.60;;
11735;SDS011;5924;51.398;7.088;2023-04-10T03:55:21;8.60;;;7.80;;
11735;SDS011;5924;51.398;7.088;2023-04-10T03:57:47;8.00;;;7.17;;
11735;SDS011;5924;51.398;7.088;2023-04-10T04:00:13;9.53;;;8.47;;
11735;SDS011;5924;51.398;7.088;2023-04-10T04:02:40;9.63;;;8.13;;
11735;SDS011;5924;51.398;7.088;2023-04-10T04:05:06;8.47;;;7.60;;
11735;SDS011;5924;51.398;7.088;2023-04-10T04:07:32;14.13;;;10.37;;
11735;SDS011;5924;51.398;7.088;2023-04-10T04:09:58;9.40;;;8.50;;
11735;SDS011;5924;51.398;7.088;2023-04-10T04:12:24;12.47;;;9.30;;
11735;SDS011;5924;51.398;7.088;2023-04-10T04:14:50;11.30;;;9.03;;
11735;SDS011;5924;51.398;7.088;2023-04-10T04:17:16;9.17;;;8.13;;
11735;SDS011;5924;51.398;7.088;2023-04-10T04:19:42;9.70;;;8.70;;
11735;SDS011;5924;51.398;7.088;2023-04-10T04:22:07;9.93;;;8.50;;
11735;SDS011;5924;51.398;7.088;2023-04-10T04:24:33;10.90;;;7.63;;
11735;SDS011;5924;51.398;7.088;2023-04-10T04:26:59;8.07;;;7.37;;
11735;SDS011;5924;51.398;7.088;2023-04-10T04:29:25;7.53;;;6.83;;
11735;SDS011;5924;51.398;7.088;2023-04-10T04:31:51;8.17;;;7.37;;
11735;SDS011;5924;51.398;7.088;2023-04-10T04:34:16;8.37;;;7.67;;
11735;SDS011;5924;51.398;7.088;2023-04-10T04:36:42;6.90;;;6.27;;
11735;SDS011;5924;51.398;7.088;2023-04-10T04:39:08;7.57;;;6.80;;
11735;SDS011;5924;51.398;7.088;2023-04-10T04:41:33;8.53;;;7.40;;
11735;SDS011;5924;51.398;7.088;2023-04-10T04:44:00;7.23;;;6.70;;
11735;SDS011;5924;51.398;7.088;2023-04-10T04:46:26;7.17;;;6.47;;
11735;SDS011;5924;51.398;7.088;2023-04-10T04:48:52;7.67;;;7.07;;
11735;SDS011;5924;51.398;7.088;2023-04-10T04:51:17;7.90;;;6.97;;
11735;SDS011;5924;51.398;7.088;2023-04-10T04:53:43;7.83;;;6.97;;
11735;SDS011;5924;51.398;7.088;2023-04-10T04:56:09;7.40;;;6.50;;
11735;SDS011;5924;51.398;7.088;2023-04-10T04:58:34;7.23;;;6.63;;
11735;SDS011;5924;51.398;7.088;2023-04-10T05:01:00;8.13;;;7.13;;
11735;SDS011;5924;51.398;7.088;2023-04-10T05:03:26;7.93;;;7.27;;
11735;SDS011;5924;51.398;7.088;2023-04-10T05:05:54;8.43;;;7.00;;
11735;SDS011;5924;51.398;7.088;2023-04-10T05:08:20;7.60;;;6.90;;
11735;SDS011;5924;51.398;7.088;2023-04-10T05:10:46;7.10;;;6.50;;
11735;SDS011;5924;51.398;7.088;2023-04-10T05:13:12;6.03;;;5.63;;
11735;SDS011;5924;51.398;7.088;2023-04-10T05:15:39;9.40;;;7.90;;
11735;SDS011;5924;51.398;7.088;2023-04-10T05:18:05;8.07;;;7.27;;
11735;SDS011;5924;51.398;7.088;2023-04-10T05:20:33;7.70;;;6.90;;
11735;SDS011;5924;51.398;7.088;2023-04-10T05:22:59;8.23;;;7.37;;
11735;SDS011;5924;51.398;7.088;2023-04-10T05:25:25;7.23;;;6.63;;
11735;SDS011;5924;51.398;7.088;2023-04-10T05:27:51;7.07;;;6.57;;
11735;SDS011;5924;51.398;7.088;2023-04-10T05:30:16;8.00;;;7.23;;
11735;SDS011;5924;51.398;7.088;2023-04-10T05:32:42;7.33;;;6.73;;
11735;SDS011;5924;51.398;7.088;2023-04-10T05:35:08;6.77;;;6.10;;
11735;SDS011;5924;51.398;7.088;2023-04-10T05:37:33;6.57;;;5.97;;
11735;SDS011;5924;51.398;7.088;2023-04-10T05:39:59;7.23;;;6.63;;
11735;SDS011;5924;51.398;7.088;2023-04-10T05:42:25;8.47;;;6.83;;
11735;SDS011;5924;51.398;7.088;2023-04-10T05:44:51;6.90;;;6.30;;
11735;SDS011;5924;51.398;7.088;2023-04-10T05:47:17;6.73;;;6.23;;
11735;SDS011;5924;51.398;7.088;2023-04-10T05:49:42;6.00;;;5.60;;
11735;SDS011;5924;51.398;7.088;2023-04-10T05:52:08;5.90;;;5.50;;
11735;SDS011;5924;51.398;7.088;2023-04-10T05:54:33;7.80;;;7.10;;
11735;SDS011;5924;51.398;7.088;2023-04-10T05:56:59;7.17;;;6.43;;
11735;SDS011;5924;51.398;7.088;2023-04-10T05:59:25;5.93;;;5.53;;
11735;SDS011;5924;51.398;7.088;2023-04-10T06:01:51;6.17;;;5.77;;
11735;SDS011;5924;51.398;7.088;2023-04-10T06:04:17;6.20;;;5.63;;
11735;SDS011;5924;51.398;7.088;2023-04-10T06:06:43;6.77;;;6.27;;
11735;SDS011;5924;51.398;7.088;2023-04-10T06:09:08;6.20;;;5.70;;
11735;SDS011;5924;51.398;7.088;2023-04-10T06:11:34;6.50;;;6.10;;
11735;SDS011;5924;51.398;7.088;2023-04-10T06:14:00;6.37;;;5.93;;
11735;SDS011;5924;51.398;7.088;2023-04-10T06:16:26;5.50;;;5.20;;
11735;SDS011;5924;51.398;7.088;2023-04-10T06:18:51;6.47;;;5.97;;
11735;SDS011;5924;51.398;7.088;2023-04-10T06:21:18;7.07;;;6.17;;
11735;SDS011;5924;51.398;7.088;2023-04-10T06:23:43;5.73;;;5.43;;
11735;SDS011;5924;51.398;7.088;2023-04-10T06:26:09;5.37;;;5.17;;
11735;SDS011;5924;51.398;7.088;2023-04-10T06:28:35;5.90;;;5.50;;
11735;SDS011;5924;51.398;7.088;2023-04-10T06:31:01;5.70;;;5.40;;
11735;SDS011;5924;51.398;7.088;2023-04-10T06:33:29;5.87;;;5.57;;
11735;SDS011;5924;51.398;7.088;2023-04-10T06:35:55;6.13;;;5.27;;
11735;SDS011;5924;51.398;7.088;2023-04-10T06:38:21;6.10;;;5.70;;
11735;SDS011;5924;51.398;7.088;2023-04-10T06:40:47;6.13;;;5.63;;
11735;SDS011;5924;51.398;7.088;2023-04-10T06:43:12;6.33;;;5.80;;
11735;SDS011;5924;51.398;7.088;2023-04-10T06:45:38;5.77;;;5.33;;
11735;SDS011;5924;51.398;7.088;2023-04-10T06:48:04;5.73;;;5.43;;
11735;SDS011;5924;51.398;7.088;2023-04-10T06:50:30;5.63;;;5.33;;
11735;SDS011;5924;51.398;7.088;2023-04-10T06:52:56;6.00;;;5.50;;
11735;SDS011;5924;51.398;7.088;2023-04-10T06:55:24;5.30;;;4.80;;
11735;SDS011;5924;51.398;7.088;2023-04-10T06:57:50;5.73;;;5.33;;
11735;SDS011;5924;51.398;7.088;2023-04-10T07:00:17;6.30;;;5.83;;
11735;SDS011;5924;51.398;7.088;2023-04-10T07:02:43;5.47;;;5.17;;
11735;SDS011;5924;51.398;7.088;2023-04-10T07:05:10;6.10;;;5.80;;
11735;SDS011;5924;51.398;7.088;2023-04-10T07:07:35;6.00;;;5.60;;
11735;SDS011;5924;51.398;7.088;2023-04-10T07:10:01;5.63;;;5.23;;
11735;SDS011;5924;51.398;7.088;2023-04-10T07:12:27;5.83;;;5.53;;
11735;SDS011;5924;51.398;7.088;2023-04-10T07:14:53;5.63;;;5.17;;
11735;SDS011;5924;51.398;7.088;2023-04-10T07:17:19;4.70;;;4.50;;
11735;SDS011;5924;51.398;7.088;2023-04-10T07:19:45;5.60;;;5.30;;
11735;SDS011;5924;51.398;7.088;2023-04-10T07:22:10;5.53;;;5.23;;
11735;SDS011;5924;51.398;7.088;2023-04-10T07:24:36;5.30;;;5.00;;
11735;SDS011;5924;51.398;7.088;2023-04-10T07:27:02;5.67;;;5.37;;
11735;SDS011;5924;51.398;7.088;2023-04-10T07:29:29;6.10;;;5.80;;
11735;SDS011;5924;51.398;7.088;2023-04-10T07:31:55;5.07;;;4.77;;
11735;SDS011;5924;51.398;7.088;2023-04-10T07:34:21;5.33;;;5.00;;
11735;SDS011;5924;51.398;7.088;2023-04-10T07:36:46;5.00;;;4.63;;
11735;SDS011;5924;51.398;7.088;2023-04-10T07:39:12;4.40;;;4.30;;
11735;SDS011;5924;51.398;7.088;2023-04-10T07:41:38;5.50;;;5.20;;
11735;SDS011;5924;51.398;7.088;2023-04-10T07:44:04;5.20;;;5.00;;
11735;SDS011;5924;51.398;7.088;2023-04-10T07:46:30;5.00;;;4.77;;
11735;SDS011;5924;51.398;7.088;2023-04-10T07:48:55;5.33;;;4.90;;
11735;SDS011;5924;51.398;7.088;2023-04-10T07:51:21;5.63;;;4.80;;
11735;SDS011;5924;51.398;7.088;2023-04-10T07:53:47;5.20;;;4.90;;
11735;SDS011;5924;51.398;7.088;2023-04-10T07:56:19;5.20;;;5.00;;
11735;SDS011;5924;51.398;7.088;2023-04-10T07:58:45;5.40;;;5.10;;
11735;SDS011;5924;51.398;7.088;2023-04-10T08:01:11;4.53;;;4.43;;
11735;SDS011;5924;51.398;7.088;2023-04-10T08:03:39;4.73;;;4.63;;
11735;SDS011;5924;51.398;7.088;2023-04-10T08:06:10;5.13;;;4.83;;
11735;SDS011;5924;51.398;7.088;2023-04-10T08:08:40;5.13;;;4.93;;
11735;SDS011;5924;51.398;7.088;2023-04-10T08:13:54;4.67;;;4.47;;
11735;SDS011;5924;51.398;7.088;2023-04-10T08:16:28;4.30;;;4.20;;
11735;SDS011;5924;51.398;7.088;2023-04-10T08:18:56;4.33;;;4.23;;
11735;SDS011;5924;51.398;7.088;2023-04-10T08:21:22;4.40;;;4.30;;
11735;SDS011;5924;51.398;7.088;2023-04-10T08:23:50;4.33;;;4.13;;
11735;SDS011;5924;51.398;7.088;2023-04-10T08:26:17;3.70;;;3.60;;
11735;SDS011;5924;51.398;7.088;2023-04-10T08:28:43;3.97;;;3.87;;
11735;SDS011;5924;51.398;7.088;2023-04-10T08:31:13;4.20;;;4.03;;
11735;SDS011;5924;51.398;7.088;2023-04-10T08:33:39;3.83;;;3.73;;
11735;SDS011;5924;51.398;7.088;2023-04-10T08:36:05;3.67;;;3.60;;
11735;SDS011;5924;51.398;7.088;2023-04-10T08:38:32;4.37;;;4.17;;
11735;SDS011;5924;51.398;7.088;2023-04-10T08:40:58;4.17;;;4.07;;
11735;SDS011;5924;51.398;7.088;2023-04-10T08:43:24;3.80;;;3.60;;
11735;SDS011;5924;51.398;7.088;2023-04-10T08:45:50;3.67;;;3.57;;
11735;SDS011;5924;51.398;7.088;2023-04-10T08:48:17;3.53;;;3.43;;
11735;SDS011;5924;51.398;7.088;2023-04-10T08:50:46;3.20;;;3.03;;
11735;SDS011;5924;51.398;7.088;2023-04-10T08:53:14;4.03;;;3.90;;
11735;SDS011;5924;51.398;7.088;2023-04-10T08:55:43;3.63;;;3.47;;
11735;SDS011;5924;51.398;7.088;2023-04-10T08:58:10;3.60;;;3.40;;
11735;SDS011;5924;51.398;7.088;2023-04-10T09:00:37;3.70;;;3.60;;
11735;SDS011;5924;51.398;7.088;2023-04-10T09:03:09;3.80;;;3.70;;
11735;SDS011;5924;51.398;7.088;2023-04-10T09:05:38;3.97;;;3.70;;
11735;SDS011;5924;51.398;7.088;2023-04-10T09:08:06;3.70;;;3.60;;
11735;SDS011;5924;51.398;7.088;2023-04-10T09:10:32;6.47;;;3.70;;
11735;SDS011;5924;51.398;7.088;2023-04-10T09:12:58;3.70;;;3.60;;
11735;SDS011;5924;51.398;7.088;2023-04-10T09:15:24;3.33;;;3.23;;
11735;SDS011;5924;51.398;7.088;2023-04-10T09:17:53;3.40;;;3.30;;
11735;SDS011;5924;51.398;7.088;2023-04-10T09:20:20;2.70;;;2.70;;
11735;SDS011;5924;51.398;7.088;2023-04-10T09:22:47;3.13;;;3.07;;
11735;SDS011;5924;51.398;7.088;2023-04-10T09:28:03;3.20;;;3.10;;
11735;SDS011;5924;51.398;7.088;2023-04-10T09:33:20;3.60;;;3.50;;
11735;SDS011;5924;51.398;7.088;2023-04-10T09:35:47;3.37;;;3.17;;
11735;SDS011;5924;51.398;7.088;2023-04-10T09:38:14;2.80;;;2.80;;
11735;SDS011;5924;51.398;7.088;2023-04-10T09:40:41;3.20;;;3.10;;
11735;SDS011;5924;51.398;7.088;2023-04-10T09:46:03;3.20;;;3.10;;
11735;SDS011;5924;51.398;7.088;2023-04-10T09:48:28;4.00;;;3.90;;
11735;SDS011;5924;51.398;7.088;2023-04-10T09:50:54;4.87;;;3.40;;
11735;SDS011;5924;51.398;7.088;2023-04-10T09:53:20;3.57;;;3.47;;
11735;SDS011;5924;51.398;7.088;2023-04-10T09:55:46;3.50;;;3.40;;
11735;SDS011;5924;51.398;7.088;2023-04-10T09:58:13;5.47;;;3.60;;
11735;SDS011;5924;51.398;7.088;2023-04-10T10:00:47;3.17;;;3.17;;
11735;SDS011;5924;51.398;7.088;2023-04-10T10:03:14;3.77;;;3.67;;
11735;SDS011;5924;51.398;7.088;2023-04-10T10:05:42;3.50;;;3.40;;
11735;SDS011;5924;51.398;7.088;2023-04-10T10:08:10;3.60;;;3.50;;
11735;SDS011;5924;51.398;7.088;2023-04-10T10:10:43;3.80;;;3.70;;
11735;SDS011;5924;51.398;7.088;2023-04-10T10:13:15;4.23;;;3.80;;
11735;SDS011;5924;51.398;7.088;2023-04-10T10:18:50;3.77;;;3.47;;
11735;SDS011;5924;51.398;7.088;2023-04-10T10:21:18;3.93;;;3.83;;
11735;SDS011;5924;51.398;7.088;2023-04-10T10:23:44;3.63;;;3.53;;
11735;SDS011;5924;51.398;7.088;2023-04-10T10:26:12;3.40;;;3.30;;
11735;SDS011;5924;51.398;7.088;2023-04-10T10:28:39;3.60;;;3.50;;
11735;SDS011;5924;51.398;7.088;2023-04-10T10:31:06;3.13;;;3.03;;
11735;SDS011;5924;51.398;7.088;2023-04-10T10:33:34;3.00;;;3.00;;
11735;SDS011;5924;51.398;7.088;2023-04-10T10:36:01;6.73;;;3.47;;
11735;SDS011;5924;51.398;7.088;2023-04-10T10:38:29;3.20;;;3.10;;
11735;SDS011;5924;51.398;7.088;2023-04-10T10:41:04;3.50;;;3.40;;
11735;SDS011;5924;51.398;7.088;2023-04-10T10:44:00;2.80;;;2.70;;
11735;SDS011;5924;51.398;7.088;2023-04-10T10:46:42;3.03;;;2.97;;
11735;SDS011;5924;51.398;7.088;2023-04-10T10:58:06;2.87;;;2.83;;
11735;SDS011;5924;51.398;7.088;2023-04-10T11:01:18;4.47;;;2.93;;
11735;SDS011;5924;51.398;7.088;2023-04-10T11:05:51;2.67;;;2.67;;
11735;SDS011;5924;51.398;7.088;2023-04-10T11:08:34;3.53;;;2.80;;
11735;SDS011;5924;51.398;7.088;2023-04-10T11:11:05;3.13;;;3.03;;
11735;SDS011;5924;51.398;7.088;2023-04-10T11:13:38;2.53;;;2.53;;
11735;SDS011;5924;51.398;7.088;2023-04-10T11:16:06;3.10;;;3.00;;
11735;SDS011;5924;51.398;7.088;2023-04-10T11:31:45;3.30;;;3.07;;
11735;SDS011;5924;51.398;7.088;2023-04-10T11:34:19;2.80;;;2.70;;
11735;SDS011;5924;51.398;7.088;2023-04-10T11:36:45;2.57;;;2.57;;
11735;SDS011;5924;51.398;7.088;2023-04-10T11:39:12;3.43;;;3.33;;
11735;SDS011;5924;51.398;7.088;2023-04-10T11:41:42;3.00;;;3.00;;
11735;SDS011;5924;51.398;7.088;2023-04-10T11:44:31;2.90;;;2.80;;
11735;SDS011;5924;51.398;7.088;2023-04-10T11:46:59;2.73;;;2.60;;
11735;SDS011;5924;51.398;7.088;2023-04-10T11:49:25;2.70;;;2.60;;
11735;SDS011;5924;51.398;7.088;2023-04-10T11:51:54;3.47;;;3.13;;
11735;SDS011;5924;51.398;7.088;2023-04-10T11:54:20;2.87;;;2.87;;
11735;SDS011;5924;51.398;7.088;2023-04-10T11:56:57;2.97;;;2.97;;
11735;SDS011;5924;51.398;7.088;2023-04-10T11:59:27;2.90;;;2.80;;
11735;SDS011;5924;51.398;7.088;2023-04-10T12:02:05;4.30;;;2.50;;
11735;SDS011;5924;51.398;7.088;2023-04-10T12:04:33;2.80;;;2.70;;
11735;SDS011;5924;51.398;7.088;2023-04-10T12:06:59;3.43;;;2.80;;
11735;SDS011;5924;51.398;7.088;2023-04-10T12:09:25;2.67;;;2.57;;
11735;SDS011;5924;51.398;7.088;2023-04-10T12:12:04;2.23;;;2.23;;
11735;SDS011;5924;51.398;7.088;2023-04-10T12:14:38;2.77;;;2.67;;
11735;SDS011;5924;51.398;7.088;2023-04-10T12:17:07;2.83;;;2.83;;
11735;SDS011;5924;51.398;7.088;2023-04-10T12:19:34;2.63;;;2.63;;
11735;SDS011;5924;51.398;7.088;2023-04-10T12:22:02;3.13;;;3.03;;
11735;SDS011;5924;51.398;7.088;2023-04-10T12:27:25;2.77;;;2.77;;
11735;SDS011;5924;51.398;7.088;2023-04-10T12:29:52;2.70;;;2.70;;
11735;SDS011;5924;51.398;7.088;2023-04-10T12:32:19;3.20;;;3.00;;
11735;SDS011;5924;51.398;7.088;2023-04-10T12:34:49;3.20;;;3.00;;
11735;SDS011;5924;51.398;7.088;2023-04-10T12:37:16;3.00;;;3.00;;
11735;SDS011;5924;51.398;7.088;2023-04-10T12:39:41;2.70;;;2.50;;
11735;SDS011;5924;51.398;7.088;2023-04-10T12:42:15;2.73;;;2.63;;
11735;SDS011;5924;51.398;7.088;2023-04-10T12:44:54;3.03;;;3.00;;
11735;SDS011;5924;51.398;7.088;2023-04-10T12:47:21;2.30;;;2.30;;
11735;SDS011;5924;51.398;7.088;2023-04-10T12:50:04;2.90;;;2.80;;
11735;SDS011;5924;51.398;7.088;2023-04-10T12:52:35;3.03;;;2.93;;
11735;SDS011;5924;51.398;7.088;2023-04-10T12:55:08;3.03;;;2.93;;
11735;SDS011;5924;51.398;7.088;2023-04-10T12:57:42;2.80;;;2.80;;
11735;SDS011;5924;51.398;7.088;2023-04-10T13:00:10;2.40;;;2.37;;
11735;SDS011;5924;51.398;7.088;2023-04-10T13:02:38;3.10;;;3.00;;
11735;SDS011;5924;51.398;7.088;2023-04-10T13:05:04;2.47;;;2.47;;
11735;SDS011;5924;51.398;7.088;2023-04-10T13:07:31;2.73;;;2.73;;
11735;SDS011;5924;51.398;7.088;2023-04-10T13:09:57;3.17;;;3.07;;
11735;SDS011;5924;51.398;7.088;2023-04-10T13:12:23;2.50;;;2.40;;
11735;SDS011;5924;51.398;7.088;2023-04-10T13:14:50;3.80;;;3.70;;
11735;SDS011;5924;51.398;7.088;2023-04-10T13:17:19;3.40;;;3.10;;
11735;SDS011;5924;51.398;7.088;2023-04-10T13:19:46;2.70;;;2.60;;
11735;SDS011;5924;51.398;7.088;2023-04-10T13:22:12;2.80;;;2.70;;
11735;SDS011;5924;51.398;7.088;2023-04-10T13:24:37;3.37;;;3.27;;
11735;SDS011;5924;51.398;7.088;2023-04-10T13:27:03;2.90;;;2.80;;
11735;SDS011;5924;51.398;7.088;2023-04-10T13:29:29;2.83;;;2.83;;
11735;SDS011;5924;51.398;7.088;2023-04-10T13:31:55;2.43;;;2.43;;
11735;SDS011;5924;51.398;7.088;2023-04-10T13:34:21;3.10;;;3.00;;
11735;SDS011;5924;51.398;7.088;2023-04-10T13:36:46;3.20;;;3.10;;
11735;SDS011;5924;51.398;7.088;2023-04-10T13:39:12;2.70;;;2.70;;
11735;SDS011;5924;51.398;7.088;2023-04-10T13:41:38;4.43;;;2.60;;
11735;SDS011;5924;51.398;7.088;2023-04-10T13:44:04;3.10;;;3.00;;
11735;SDS011;5924;51.398;7.088;2023-04-10T13:46:29;2.80;;;2.80;;
11735;SDS011;5924;51.398;7.088;2023-04-10T13:48:55;2.97;;;2.87;;
11735;SDS011;5924;51.398;7.088;2023-04-10T13:51:21;3.57;;;3.27;;
11735;SDS011;5924;51.398;7.088;2023-04-10T13:53:46;3.10;;;2.90;;
11735;SDS011;5924;51.398;7.088;2023-04-10T13:56:12;3.60;;;2.90;;
11735;SDS011;5924;51.398;7.088;2023-04-10T13:58:38;3.43;;;3.33;;
11735;SDS011;5924;51.398;7.088;2023-04-10T14:01:03;2.90;;;2.80;;
11735;SDS011;5924;51.398;7.088;2023-04-10T14:03:30;3.20;;;3.17;;
11735;SDS011;5924;51.398;7.088;2023-04-10T14:05:56;3.00;;;3.00;;
11735;SDS011;5924;51.398;7.088;2023-04-10T14:08:21;3.27;;;3.03;;
11735;SDS011;5924;51.398;7.088;2023-04-10T14:10:47;3.63;;;3.40;;
11735;SDS011;5924;51.398;7.088;2023-04-10T14:13:17;3.43;;;3.33;;
11735;SDS011;5924;51.398;7.088;2023-04-10T14:15:43;3.30;;;3.20;;
11735;SDS011;5924;51.398;7.088;2023-04-10T14:18:09;3.23;;;3.13;;
11735;SDS011;5924;51.398;7.088;2023-04-10T14:20:34;3.10;;;3.00;;
11735;SDS011;5924;51.398;7.088;2023-04-10T14:23:00;2.80;;;2.70;;
11735;SDS011;5924;51.398;7.088;2023-04-10T14:25:26;2.90;;;2.90;;
11735;SDS011;5924;51.398;7.088;2023-04-10T14:27:52;3.13;;;3.03;;
11735;SDS011;5924;51.398;7.088;2023-04-10T14:30:17;3.00;;;2.90;;
11735;SDS011;5924;51.398;7.088;2023-04-10T14:32:43;2.67;;;2.57;;
11735;SDS011;5924;51.398;7.088;2023-04-10T14:35:09;3.00;;;2.80;;
11735;SDS011;5924;51.398;7.088;2023-04-10T14:37:35;3.13;;;2.93;;
11735;SDS011;5924;51.398;7.088;2023-04-10T14:40:01;2.93;;;2.93;;
11735;SDS011;5924;51.398;7.088;2023-04-10T14:42:29;2.90;;;2.80;;
11735;SDS011;5924;51.398;7.088;2023-04-10T14:44:55;3.23;;;2.93;;
11735;SDS011;5924;51.398;7.088;2023-04-10T14:47:22;2.87;;;2.77;;
11735;SDS011;5924;51.398;7.088;2023-04-10T14:49:48;3.00;;;2.90;;
11735;SDS011;5924;51.398;7.088;2023-04-10T14:52:14;3.20;;;3.10;;
11735;SDS011;5924;51.398;7.088;2023-04-10T14:54:40;2.50;;;2.50;;
11735;SDS011;5924;51.398;7.088;2023-04-10T14:57:05;3.10;;;2.90;;
11735;SDS011;5924;51.398;7.088;2023-04-10T14:59:31;2.50;;;2.50;;
11735;SDS011;5924;51.398;7.088;2023-04-10T15:01:57;5.20;;;4.90;;
11735;SDS011;5924;51.398;7.088;2023-04-10T15:04:22;7.37;;;6.77;;
11735;SDS011;5924;51.398;7.088;2023-04-10T15:06:48;6.17;;;5.77;;
11735;SDS011;5924;51.398;7.088;2023-04-10T15:09:15;5.50;;;5.00;;
11735;SDS011;5924;51.398;7.088;2023-04-10T15:11:40;4.73;;;4.40;;
11735;SDS011;5924;51.398;7.088;2023-04-10T15:14:06;3.53;;;3.43;;
11735;SDS011;5924;51.398;7.088;2023-04-10T15:16:32;3.30;;;3.20;;
11735;SDS011;5924;51.398;7.088;2023-04-10T15:18:58;4.60;;;3.10;;
11735;SDS011;5924;51.398;7.088;2023-04-10T15:21:24;3.27;;;3.23;;
11735;SDS011;5924;51.398;7.088;2023-04-10T15:23:51;2.50;;;2.50;;
11735;SDS011;5924;51.398;7.088;2023-04-10T15:26:16;6.93;;;2.73;;
11735;SDS011;5924;51.398;7.088;2023-04-10T15:28:43;2.50;;;2.50;;
11735;SDS011;5924;51.398;7.088;2023-04-10T15:31:09;2.80;;;2.77;;
11735;SDS011;5924;51.398;7.088;2023-04-10T15:33:35;3.37;;;3.10;;
11735;SDS011;5924;51.398;7.088;2023-04-10T15:36:03;2.40;;;2.30;;
11735;SDS011;5924;51.398;7.088;2023-04-10T15:38:31;3.03;;;2.93;;
11735;SDS011;5924;51.398;7.088;2023-04-10T15:41:00;3.00;;;2.90;;
11735;SDS011;5924;51.398;7.088;2023-04-10T15:43:26;3.57;;;3.40;;
11735;SDS011;5924;51.398;7.088;2023-04-10T15:45:52;2.80;;;2.70;;
11735;SDS011;5924;51.398;7.088;2023-04-10T15:48:17;2.73;;;2.60;;